sensor_id;sensor_type;location;lat;lon;timestamp;P1;durP1;ratioP1;P2;durP2;ratioP2
30420;SDS011;17218;54.070;10.012;2024-03-23T00:55:20;14.20;;;3.17;;
30420;SDS011;17218;54.070;10.012;2024-03-23T00:57:46;9.73;;;2.10;;
30420;SDS011;17218;54.070;10.012;2024-03-23T01:00:13;10.93;;;1.87;;
30420;SDS011;17218;54.070;10.012;2024-03-23T01:02:39;9.13;;;1.67;;
30420;SDS011;17218;54.070;10.012;2024-03-23T01:05:06;8.93;;;1.92;;
30420;SDS011;17218;54.070;10.012;2024-03-23T01:07:31;9.50;;;1.88;;
30420;SDS011;17218;54.070;10.012;2024-03-23T01:09:59;12.77;;;2.58;;
30420;SDS011;17218;54.070;10.012;2024-03-23T01:12:25;9.30;;;2.00;;
30420;SDS011;17218;54.070;10.012;2024-03-23T01:14:51;10.35;;;2.45;;
30420;SDS011;17218;54.070;10.012;2024-03-23T01:17:17;7.50;;;1.97;;
30420;SDS011;17218;54.070;10.012;2024-03-23T01:19:43;7.97;;;2.75;;
30420;SDS011;17218;54.070;10.012;2024-03-23T01:22:09;5.83;;;1.70;;
30420;SDS011;17218;54.070;10.012;2024-03-23T01:24:36;9.07;;;2.08;;
30420;SDS011;17218;54.070;10.012;2024-03-23T01:27:03;7.50;;;2.03;;
30420;SDS011;17218;54.070;10.012;2024-03-23T01:29:29;7.70;;;1.97;;
30420;SDS011;17218;54.070;10.012;2024-03-23T01:31:55;8.90;;;2.25;;
30420;SDS011;17218;54.070;10.012;2024-03-23T01:34:21;3.73;;;1.83;;
30420;SDS011;17218;54.070;10.012;2024-03-23T01:36:47;6.28;;;2.72;;
30420;SDS011;17218;54.070;10.012;2024-03-23T01:39:14;3.80;;;1.33;;
30420;SDS011;17218;54.070;10.012;2024-03-23T01:41:39;6.87;;;2.20;;
30420;SDS011;17218;54.070;10.012;2024-03-23T01:44:08;11.15;;;2.00;;
30420;SDS011;17218;54.070;10.012;2024-03-23T01:46:36;3.63;;;1.40;;
30420;SDS011;17218;54.070;10.012;2024-03-23T01:49:04;12.67;;;1.93;;
30420;SDS011;17218;54.070;10.012;2024-03-23T01:51:30;6.77;;;1.70;;
30420;SDS011;17218;54.070;10.012;2024-03-23T01:53:58;11.00;;;1.90;;
30420;SDS011;17218;54.070;10.012;2024-03-23T01:56:25;8.27;;;2.23;;
30420;SDS011;17218;54.070;10.012;2024-03-23T01:58:52;10.60;;;2.33;;
30420;SDS011;17218;54.070;10.012;2024-03-23T02:01:19;9.07;;;2.57;;
30420;SDS011;17218;54.070;10.012;2024-03-23T02:03:46;15.17;;;2.57;;
30420;SDS011;17218;54.070;10.012;2024-03-23T02:06:11;9.17;;;1.60;;
30420;SDS011;17218;54.070;10.012;2024-03-23T02:08:38;6.80;;;2.00;;
30420;SDS011;17218;54.070;10.012;2024-03-23T02:11:04;3.70;;;1.93;;
30420;SDS011;17218;54.070;10.012;2024-03-23T02:13:31;9.70;;;2.10;;
30420;SDS011;17218;54.070;10.012;2024-03-23T02:15:57;6.80;;;1.47;;
30420;SDS011;17218;54.070;10.012;2024-03-23T02:18:25;12.03;;;2.30;;
30420;SDS011;17218;54.070;10.012;2024-03-23T02:20:50;9.87;;;2.03;;
30420;SDS011;17218;54.070;10.012;2024-03-23T02:23:18;6.73;;;2.00;;
30420;SDS011;17218;54.070;10.012;2024-03-23T02:25:44;8.57;;;2.45;;
30420;SDS011;17218;54.070;10.012;2024-03-23T02:28:10;12.27;;;2.03;;
30420;SDS011;17218;54.070;10.012;2024-03-23T02:30:36;11.60;;;2.37;;
30420;SDS011;17218;54.070;10.012;2024-03-23T02:33:03;8.87;;;2.30;;
30420;SDS011;17218;54.070;10.012;2024-03-23T02:35:28;9.20;;;2.87;;
30420;SDS011;17218;54.070;10.012;2024-03-23T02:37:55;10.57;;;2.10;;
30420;SDS011;17218;54.070;10.012;2024-03-23T02:40:23;12.07;;;2.30;;
30420;SDS011;17218;54.070;10.012;2024-03-23T02:42:50;11.17;;;3.20;;
30420;SDS011;17218;54.070;10.012;2024-03-23T02:45:16;8.60;;;2.30;;
30420;SDS011;17218;54.070;10.012;2024-03-23T02:47:43;9.07;;;2.60;;
30420;SDS011;17218;54.070;10.012;2024-03-23T02:50:08;10.57;;;2.30;;
30420;SDS011;17218;54.070;10.012;2024-03-23T02:52:35;7.43;;;2.60;;
30420;SDS011;17218;54.070;10.012;2024-03-23T02:55:01;3.33;;;1.57;;
30420;SDS011;17218;54.070;10.012;2024-03-23T02:57:29;6.73;;;1.67;;
30420;SDS011;17218;54.070;10.012;2024-03-23T02:59:54;4.23;;;1.97;;
30420;SDS011;17218;54.070;10.012;2024-03-23T03:02:21;11.27;;;2.20;;
30420;SDS011;17218;54.070;10.012;2024-03-23T03:04:47;8.80;;;2.00;;
30420;SDS011;17218;54.070;10.012;2024-03-23T03:07:13;11.07;;;3.00;;
30420;SDS011;17218;54.070;10.012;2024-03-23T03:09:39;14.47;;;2.00;;
30420;SDS011;17218;54.070;10.012;2024-03-23T03:12:06;10.13;;;2.73;;
30420;SDS011;17218;54.070;10.012;2024-03-23T03:14:33;11.93;;;2.63;;
30420;SDS011;17218;54.070;10.012;2024-03-23T03:17:00;11.13;;;2.13;;
30420;SDS011;17218;54.070;10.012;2024-03-23T03:19:26;7.63;;;2.10;;
30420;SDS011;17218;54.070;10.012;2024-03-23T03:21:52;7.27;;;2.03;;
30420;SDS011;17218;54.070;10.012;2024-03-23T03:24:18;8.23;;;1.90;;
30420;SDS011;17218;54.070;10.012;2024-03-23T03:26:45;7.77;;;1.87;;
30420;SDS011;17218;54.070;10.012;2024-03-23T03:29:10;10.93;;;2.73;;
30420;SDS011;17218;54.070;10.012;2024-03-23T03:31:38;9.50;;;2.03;;
30420;SDS011;17218;54.070;10.012;2024-03-23T03:34:04;10.73;;;2.73;;
30420;SDS011;17218;54.070;10.012;2024-03-23T03:36:30;5.77;;;1.77;;
30420;SDS011;17218;54.070;10.012;2024-03-23T03:38:56;8.43;;;2.13;;
30420;SDS011;17218;54.070;10.012;2024-03-23T03:41:22;6.37;;;2.63;;
30420;SDS011;17218;54.070;10.012;2024-03-23T03:43:48;7.73;;;1.97;;
30420;SDS011;17218;54.070;10.012;2024-03-23T03:46:14;9.90;;;2.07;;
30420;SDS011;17218;54.070;10.012;2024-03-23T03:48:41;8.47;;;2.07;;
30420;SDS011;17218;54.070;10.012;2024-03-23T03:51:10;4.83;;;1.90;;
30420;SDS011;17218;54.070;10.012;2024-03-23T03:53:35;10.30;;;2.67;;
30420;SDS011;17218;54.070;10.012;2024-03-23T03:56:02;8.93;;;2.40;;
30420;SDS011;17218;54.070;10.012;2024-03-23T03:58:28;11.40;;;2.73;;
30420;SDS011;17218;54.070;10.012;2024-03-23T04:00:54;9.93;;;2.63;;
30420;SDS011;17218;54.070;10.012;2024-03-23T04:03:20;17.87;;;2.83;;
30420;SDS011;17218;54.070;10.012;2024-03-23T04:05:51;11.50;;;2.40;;
30420;SDS011;17218;54.070;10.012;2024-03-23T04:08:16;8.60;;;2.13;;
30420;SDS011;17218;54.070;10.012;2024-03-23T04:10:43;12.40;;;2.80;;
30420;SDS011;17218;54.070;10.012;2024-03-23T04:13:08;11.63;;;2.87;;
30420;SDS011;17218;54.070;10.012;2024-03-23T04:15:35;12.40;;;2.03;;
30420;SDS011;17218;54.070;10.012;2024-03-23T04:18:00;9.77;;;1.80;;
30420;SDS011;17218;54.070;10.012;2024-03-23T04:20:27;14.53;;;2.53;;
30420;SDS011;17218;54.070;10.012;2024-03-23T04:22:54;5.03;;;1.90;;
30420;SDS011;17218;54.070;10.012;2024-03-23T04:25:20;7.17;;;2.17;;
30420;SDS011;17218;54.070;10.012;2024-03-23T04:27:46;15.07;;;2.87;;
30420;SDS011;17218;54.070;10.012;2024-03-23T04:30:12;13.60;;;2.40;;
30420;SDS011;17218;54.070;10.012;2024-03-23T04:32:40;10.00;;;2.67;;
30420;SDS011;17218;54.070;10.012;2024-03-23T04:35:07;6.60;;;2.50;;
30420;SDS011;17218;54.070;10.012;2024-03-23T04:37:34;9.73;;;2.43;;
30420;SDS011;17218;54.070;10.012;2024-03-23T04:40:03;12.93;;;2.90;;
30420;SDS011;17218;54.070;10.012;2024-03-23T04:42:30;7.30;;;2.43;;
30420;SDS011;17218;54.070;10.012;2024-03-23T04:44:57;8.50;;;3.07;;
30420;SDS011;17218;54.070;10.012;2024-03-23T04:47:24;12.13;;;3.07;;
30420;SDS011;17218;54.070;10.012;2024-03-23T04:49:50;13.37;;;2.33;;
30420;SDS011;17218;54.070;10.012;2024-03-23T04:52:16;7.77;;;2.30;;
30420;SDS011;17218;54.070;10.012;2024-03-23T04:54:42;11.00;;;2.57;;
30420;SDS011;17218;54.070;10.012;2024-03-23T04:57:10;7.83;;;2.30;;
30420;SDS011;17218;54.070;10.012;2024-03-23T04:59:36;9.73;;;3.43;;
30420;SDS011;17218;54.070;10.012;2024-03-23T05:02:02;14.20;;;2.77;;
30420;SDS011;17218;54.070;10.012;2024-03-23T05:04:28;12.33;;;2.83;;
30420;SDS011;17218;54.070;10.012;2024-03-23T05:06:55;14.63;;;3.23;;
30420;SDS011;17218;54.070;10.012;2024-03-23T05:09:20;9.03;;;2.23;;
30420;SDS011;17218;54.070;10.012;2024-03-23T05:11:47;14.57;;;2.73;;
30420;SDS011;17218;54.070;10.012;2024-03-23T05:14:14;12.70;;;3.40;;
30420;SDS011;17218;54.070;10.012;2024-03-23T05:16:41;13.17;;;3.50;;
30420;SDS011;17218;54.070;10.012;2024-03-23T05:19:06;11.10;;;2.60;;
30420;SDS011;17218;54.070;10.012;2024-03-23T05:21:33;5.97;;;2.30;;
30420;SDS011;17218;54.070;10.012;2024-03-23T05:23:59;7.47;;;2.37;;
30420;SDS011;17218;54.070;10.012;2024-03-23T05:26:25;7.00;;;2.73;;
30420;SDS011;17218;54.070;10.012;2024-03-23T05:28:50;10.53;;;2.40;;
30420;SDS011;17218;54.070;10.012;2024-03-23T05:31:23;7.37;;;3.30;;
30420;SDS011;17218;54.070;10.012;2024-03-23T05:33:49;5.83;;;2.73;;
30420;SDS011;17218;54.070;10.012;2024-03-23T05:36:17;12.57;;;3.00;;
30420;SDS011;17218;54.070;10.012;2024-03-23T05:38:43;8.00;;;2.40;;
30420;SDS011;17218;54.070;10.012;2024-03-23T05:41:09;9.90;;;2.27;;
30420;SDS011;17218;54.070;10.012;2024-03-23T05:43:35;11.63;;;3.47;;
30420;SDS011;17218;54.070;10.012;2024-03-23T05:46:01;14.33;;;3.13;;
30420;SDS011;17218;54.070;10.012;2024-03-23T05:48:30;13.40;;;3.83;;
30420;SDS011;17218;54.070;10.012;2024-03-23T05:50:57;11.60;;;2.53;;
30420;SDS011;17218;54.070;10.012;2024-03-23T05:53:23;6.10;;;2.83;;
30420;SDS011;17218;54.070;10.012;2024-03-23T05:55:50;12.30;;;3.30;;
30420;SDS011;17218;54.070;10.012;2024-03-23T05:58:18;7.03;;;2.70;;
30420;SDS011;17218;54.070;10.012;2024-03-23T06:00:45;10.83;;;2.80;;
30420;SDS011;17218;54.070;10.012;2024-03-23T06:03:11;13.17;;;2.70;;
30420;SDS011;17218;54.070;10.012;2024-03-23T06:05:39;9.90;;;3.20;;
30420;SDS011;17218;54.070;10.012;2024-03-23T06:08:05;14.40;;;2.83;;
30420;SDS011;17218;54.070;10.012;2024-03-23T06:10:34;8.00;;;2.63;;
30420;SDS011;17218;54.070;10.012;2024-03-23T06:13:00;10.10;;;2.37;;
30420;SDS011;17218;54.070;10.012;2024-03-23T06:15:27;10.60;;;3.10;;
30420;SDS011;17218;54.070;10.012;2024-03-23T06:17:53;11.70;;;4.10;;
30420;SDS011;17218;54.070;10.012;2024-03-23T06:20:19;13.27;;;3.10;;
30420;SDS011;17218;54.070;10.012;2024-03-23T06:22:46;9.70;;;2.77;;
30420;SDS011;17218;54.070;10.012;2024-03-23T06:25:13;10.17;;;2.40;;
30420;SDS011;17218;54.070;10.012;2024-03-23T06:27:39;13.60;;;3.37;;
30420;SDS011;17218;54.070;10.012;2024-03-23T06:30:06;10.33;;;3.30;;
30420;SDS011;17218;54.070;10.012;2024-03-23T06:32:32;6.87;;;2.37;;
30420;SDS011;17218;54.070;10.012;2024-03-23T06:34:58;9.47;;;3.40;;
30420;SDS011;17218;54.070;10.012;2024-03-23T06:37:24;4.80;;;2.83;;
30420;SDS011;17218;54.070;10.012;2024-03-23T06:39:55;9.80;;;2.97;;
30420;SDS011;17218;54.070;10.012;2024-03-23T06:42:20;12.40;;;2.60;;
30420;SDS011;17218;54.070;10.012;2024-03-23T06:44:47;9.70;;;3.10;;
30420;SDS011;17218;54.070;10.012;2024-03-23T06:47:12;11.63;;;3.33;;
30420;SDS011;17218;54.070;10.012;2024-03-23T06:49:39;12.60;;;3.10;;
30420;SDS011;17218;54.070;10.012;2024-03-23T06:52:04;8.77;;;3.20;;
30420;SDS011;17218;54.070;10.012;2024-03-23T06:54:31;11.20;;;3.10;;
30420;SDS011;17218;54.070;10.012;2024-03-23T06:56:58;10.53;;;2.70;;
30420;SDS011;17218;54.070;10.012;2024-03-23T06:59:25;8.90;;;3.43;;
30420;SDS011;17218;54.070;10.012;2024-03-23T07:01:50;15.63;;;3.03;;
30420;SDS011;17218;54.070;10.012;2024-03-23T07:04:17;9.07;;;2.93;;
30420;SDS011;17218;54.070;10.012;2024-03-23T07:06:43;8.10;;;2.83;;
30420;SDS011;17218;54.070;10.012;2024-03-23T07:09:10;10.97;;;3.43;;
30420;SDS011;17218;54.070;10.012;2024-03-23T07:11:36;6.43;;;2.90;;
30420;SDS011;17218;54.070;10.012;2024-03-23T07:14:06;15.03;;;3.40;;
30420;SDS011;17218;54.070;10.012;2024-03-23T07:16:32;12.30;;;3.30;;
30420;SDS011;17218;54.070;10.012;2024-03-23T07:18:58;13.60;;;3.37;;
30420;SDS011;17218;54.070;10.012;2024-03-23T07:21:24;13.23;;;3.13;;
30420;SDS011;17218;54.070;10.012;2024-03-23T07:23:50;12.33;;;3.30;;
30420;SDS011;17218;54.070;10.012;2024-03-23T07:26:16;17.17;;;3.37;;
30420;SDS011;17218;54.070;10.012;2024-03-23T07:28:43;8.68;;;3.45;;
30420;SDS011;17218;54.070;10.012;2024-03-23T07:31:12;10.47;;;4.00;;
30420;SDS011;17218;54.070;10.012;2024-03-23T07:33:43;12.85;;;3.25;;
30420;SDS011;17218;54.070;10.012;2024-03-23T07:36:10;18.45;;;4.32;;
30420;SDS011;17218;54.070;10.012;2024-03-23T07:38:39;9.98;;;3.15;;
30420;SDS011;17218;54.070;10.012;2024-03-23T07:41:05;7.43;;;3.30;;
30420;SDS011;17218;54.070;10.012;2024-03-23T07:43:33;12.07;;;3.17;;
30420;SDS011;17218;54.070;10.012;2024-03-23T07:45:59;18.48;;;4.28;;
30420;SDS011;17218;54.070;10.012;2024-03-23T07:48:29;14.07;;;3.60;;
30420;SDS011;17218;54.070;10.012;2024-03-23T07:50:59;9.88;;;3.83;;
30420;SDS011;17218;54.070;10.012;2024-03-23T07:53:26;17.13;;;4.07;;
30420;SDS011;17218;54.070;10.012;2024-03-23T07:55:53;19.10;;;5.07;;
30420;SDS011;17218;54.070;10.012;2024-03-23T07:58:20;12.03;;;4.07;;
30420;SDS011;17218;54.070;10.012;2024-03-23T08:00:46;13.47;;;3.87;;
30420;SDS011;17218;54.070;10.012;2024-03-23T08:03:13;13.57;;;2.83;;
30420;SDS011;17218;54.070;10.012;2024-03-23T08:05:39;10.85;;;3.22;;
30420;SDS011;17218;54.070;10.012;2024-03-23T08:08:06;12.10;;;3.70;;
30420;SDS011;17218;54.070;10.012;2024-03-23T08:10:32;12.45;;;3.00;;
30420;SDS011;17218;54.070;10.012;2024-03-23T08:12:58;10.32;;;2.70;;
30420;SDS011;17218;54.070;10.012;2024-03-23T08:15:24;8.07;;;2.58;;
30420;SDS011;17218;54.070;10.012;2024-03-23T08:17:50;15.93;;;3.35;;
30420;SDS011;17218;54.070;10.012;2024-03-23T08:20:16;12.05;;;2.53;;
30420;SDS011;17218;54.070;10.012;2024-03-23T08:22:44;8.50;;;2.67;;
30420;SDS011;17218;54.070;10.012;2024-03-23T08:25:10;8.57;;;3.80;;
30420;SDS011;17218;54.070;10.012;2024-03-23T08:27:36;11.57;;;2.50;;
30420;SDS011;17218;54.070;10.012;2024-03-23T08:30:02;6.15;;;2.13;;
30420;SDS011;17218;54.070;10.012;2024-03-23T08:32:29;7.57;;;2.38;;
30420;SDS011;17218;54.070;10.012;2024-03-23T08:34:54;11.88;;;2.72;;
30420;SDS011;17218;54.070;10.012;2024-03-23T08:37:21;11.18;;;2.38;;
30420;SDS011;17218;54.070;10.012;2024-03-23T08:39:48;5.95;;;2.33;;
30420;SDS011;17218;54.070;10.012;2024-03-23T08:42:17;6.50;;;2.53;;
30420;SDS011;17218;54.070;10.012;2024-03-23T08:44:42;8.02;;;1.83;;
30420;SDS011;17218;54.070;10.012;2024-03-23T08:47:11;8.10;;;2.20;;
30420;SDS011;17218;54.070;10.012;2024-03-23T08:49:37;7.38;;;1.95;;
30420;SDS011;17218;54.070;10.012;2024-03-23T08:52:03;5.85;;;1.48;;
30420;SDS011;17218;54.070;10.012;2024-03-23T08:54:29;4.72;;;1.60;;
30420;SDS011;17218;54.070;10.012;2024-03-23T08:56:57;4.60;;;1.85;;
30420;SDS011;17218;54.070;10.012;2024-03-23T08:59:23;4.60;;;1.50;;
30420;SDS011;17218;54.070;10.012;2024-03-23T09:01:49;5.55;;;1.48;;
30420;SDS011;17218;54.070;10.012;2024-03-23T09:04:15;7.80;;;2.05;;
30420;SDS011;17218;54.070;10.012;2024-03-23T09:06:42;5.13;;;1.50;;
30420;SDS011;17218;54.070;10.012;2024-03-23T09:09:07;3.55;;;0.88;;
30420;SDS011;17218;54.070;10.012;2024-03-23T09:11:34;2.70;;;0.68;;
30420;SDS011;17218;54.070;10.012;2024-03-23T09:14:01;1.83;;;0.95;;
30420;SDS011;17218;54.070;10.012;2024-03-23T09:16:27;1.70;;;0.98;;
30420;SDS011;17218;54.070;10.012;2024-03-23T09:18:53;1.92;;;0.93;;
30420;SDS011;17218;54.070;10.012;2024-03-23T09:21:19;3.87;;;1.00;;
30420;SDS011;17218;54.070;10.012;2024-03-23T09:23:45;3.58;;;1.00;;
30420;SDS011;17218;54.070;10.012;2024-03-23T09:26:12;1.55;;;0.85;;
30420;SDS011;17218;54.070;10.012;2024-03-23T09:28:38;5.13;;;1.30;;
30420;SDS011;17218;54.070;10.012;2024-03-23T09:31:06;2.92;;;1.50;;
30420;SDS011;17218;54.070;10.012;2024-03-23T09:33:32;6.30;;;1.70;;
30420;SDS011;17218;54.070;10.012;2024-03-23T09:36:02;8.63;;;1.58;;
30420;SDS011;17218;54.070;10.012;2024-03-23T09:38:29;6.95;;;1.58;;
30420;SDS011;17218;54.070;10.012;2024-03-23T09:40:57;4.75;;;1.77;;
30420;SDS011;17218;54.070;10.012;2024-03-23T09:43:23;6.20;;;1.75;;
30420;SDS011;17218;54.070;10.012;2024-03-23T09:45:50;7.13;;;2.72;;
30420;SDS011;17218;54.070;10.012;2024-03-23T09:48:17;7.35;;;2.00;;
30420;SDS011;17218;54.070;10.012;2024-03-23T09:50:45;10.52;;;1.90;;
30420;SDS011;17218;54.070;10.012;2024-03-23T09:53:11;14.65;;;2.20;;
30420;SDS011;17218;54.070;10.012;2024-03-23T09:55:39;5.60;;;1.88;;
30420;SDS011;17218;54.070;10.012;2024-03-23T09:58:05;7.32;;;1.83;;
30420;SDS011;17218;54.070;10.012;2024-03-23T10:00:32;7.65;;;1.73;;
30420;SDS011;17218;54.070;10.012;2024-03-23T10:02:58;7.25;;;1.50;;
30420;SDS011;17218;54.070;10.012;2024-03-23T10:05:29;4.95;;;1.38;;
30420;SDS011;17218;54.070;10.012;2024-03-23T10:07:57;3.65;;;1.60;;
30420;SDS011;17218;54.070;10.012;2024-03-23T10:10:24;5.15;;;1.83;;
30420;SDS011;17218;54.070;10.012;2024-03-23T10:12:50;5.28;;;1.92;;
30420;SDS011;17218;54.070;10.012;2024-03-23T10:15:18;8.68;;;1.98;;
30420;SDS011;17218;54.070;10.012;2024-03-23T10:17:44;6.80;;;1.77;;
30420;SDS011;17218;54.070;10.012;2024-03-23T10:20:11;5.22;;;1.52;;
30420;SDS011;17218;54.070;10.012;2024-03-23T10:22:38;2.97;;;1.48;;
30420;SDS011;17218;54.070;10.012;2024-03-23T10:25:08;3.83;;;1.25;;
30420;SDS011;17218;54.070;10.012;2024-03-23T10:27:35;4.97;;;1.75;;
30420;SDS011;17218;54.070;10.012;2024-03-23T10:30:08;5.43;;;1.40;;
30420;SDS011;17218;54.070;10.012;2024-03-23T10:32:35;4.50;;;1.40;;
30420;SDS011;17218;54.070;10.012;2024-03-23T10:35:14;6.50;;;1.55;;
30420;SDS011;17218;54.070;10.012;2024-03-23T10:37:41;2.55;;;0.98;;
30420;SDS011;17218;54.070;10.012;2024-03-23T10:40:09;5.68;;;1.33;;
30420;SDS011;17218;54.070;10.012;2024-03-23T10:42:38;6.45;;;1.25;;
30420;SDS011;17218;54.070;10.012;2024-03-23T10:45:05;4.32;;;1.20;;
30420;SDS011;17218;54.070;10.012;2024-03-23T10:47:33;3.70;;;1.20;;
30420;SDS011;17218;54.070;10.012;2024-03-23T10:50:00;2.70;;;1.08;;
30420;SDS011;17218;54.070;10.012;2024-03-23T10:52:27;2.70;;;1.05;;
30420;SDS011;17218;54.070;10.012;2024-03-23T10:54:54;3.25;;;0.80;;
30420;SDS011;17218;54.070;10.012;2024-03-23T10:57:23;2.40;;;0.70;;
30420;SDS011;17218;54.070;10.012;2024-03-23T10:59:55;4.15;;;0.98;;
30420;SDS011;17218;54.070;10.012;2024-03-23T11:02:23;4.97;;;0.90;;
30420;SDS011;17218;54.070;10.012;2024-03-23T11:04:52;3.05;;;0.85;;
30420;SDS011;17218;54.070;10.012;2024-03-23T11:07:30;6.80;;;1.05;;
30420;SDS011;17218;54.070;10.012;2024-03-23T11:09:58;4.30;;;1.27;;
30420;SDS011;17218;54.070;10.012;2024-03-23T11:12:29;2.35;;;0.82;;
30420;SDS011;17218;54.070;10.012;2024-03-23T11:14:57;4.05;;;1.02;;
30420;SDS011;17218;54.070;10.012;2024-03-23T11:17:26;5.53;;;1.10;;
30420;SDS011;17218;54.070;10.012;2024-03-23T11:19:53;5.18;;;0.80;;
30420;SDS011;17218;54.070;10.012;2024-03-23T11:22:40;2.90;;;0.80;;
30420;SDS011;17218;54.070;10.012;2024-03-23T11:25:18;3.15;;;0.90;;
30420;SDS011;17218;54.070;10.012;2024-03-23T11:27:47;6.35;;;1.13;;
30420;SDS011;17218;54.070;10.012;2024-03-23T11:30:14;7.75;;;1.10;;
30420;SDS011;17218;54.070;10.012;2024-03-23T11:32:42;2.70;;;0.90;;
30420;SDS011;17218;54.070;10.012;2024-03-23T11:35:08;3.72;;;1.05;;
30420;SDS011;17218;54.070;10.012;2024-03-23T11:37:36;3.70;;;0.90;;
30420;SDS011;17218;54.070;10.012;2024-03-23T11:42:45;3.88;;;0.85;;
30420;SDS011;17218;54.070;10.012;2024-03-23T11:45:11;3.70;;;0.90;;
30420;SDS011;17218;54.070;10.012;2024-03-23T11:47:39;4.93;;;1.00;;
30420;SDS011;17218;54.070;10.012;2024-03-23T11:50:04;4.32;;;0.90;;
30420;SDS011;17218;54.070;10.012;2024-03-23T11:52:31;2.33;;;1.00;;
30420;SDS011;17218;54.070;10.012;2024-03-23T11:55:02;3.72;;;0.90;;
30420;SDS011;17218;54.070;10.012;2024-03-23T11:57:31;5.63;;;1.17;;
30420;SDS011;17218;54.070;10.012;2024-03-23T11:59:56;7.72;;;1.20;;
30420;SDS011;17218;54.070;10.012;2024-03-23T12:02:23;3.05;;;0.82;;
30420;SDS011;17218;54.070;10.012;2024-03-23T12:04:49;1.25;;;0.80;;
30420;SDS011;17218;54.070;10.012;2024-03-23T12:07:16;3.97;;;1.20;;
30420;SDS011;17218;54.070;10.012;2024-03-23T12:09:44;4.03;;;0.90;;
30420;SDS011;17218;54.070;10.012;2024-03-23T12:12:13;4.63;;;0.88;;
30420;SDS011;17218;54.070;10.012;2024-03-23T12:14:42;3.03;;;1.02;;
30420;SDS011;17218;54.070;10.012;2024-03-23T12:17:11;3.22;;;0.50;;
30420;SDS011;17218;54.070;10.012;2024-03-23T12:19:38;1.98;;;0.70;;
30420;SDS011;17218;54.070;10.012;2024-03-23T12:22:05;3.28;;;0.80;;
30420;SDS011;17218;54.070;10.012;2024-03-23T12:24:31;1.92;;;0.52;;
30420;SDS011;17218;54.070;10.012;2024-03-23T12:26:59;3.08;;;0.57;;
30420;SDS011;17218;54.070;10.012;2024-03-23T12:29:26;1.92;;;0.50;;
30420;SDS011;17218;54.070;10.012;2024-03-23T12:31:54;3.03;;;0.73;;
30420;SDS011;17218;54.070;10.012;2024-03-23T12:34:21;2.42;;;0.35;;
30420;SDS011;17218;54.070;10.012;2024-03-23T12:36:47;1.55;;;0.75;;
30420;SDS011;17218;54.070;10.012;2024-03-23T12:39:13;3.60;;;0.50;;
30420;SDS011;17218;54.070;10.012;2024-03-23T12:41:39;2.90;;;0.63;;
30420;SDS011;17218;54.070;10.012;2024-03-23T12:44:05;1.90;;;0.68;;
30420;SDS011;17218;54.070;10.012;2024-03-23T12:46:33;3.03;;;0.95;;
30420;SDS011;17218;54.070;10.012;2024-03-23T12:49:00;3.67;;;1.10;;
30420;SDS011;17218;54.070;10.012;2024-03-23T12:51:26;4.35;;;1.00;;
30420;SDS011;17218;54.070;10.012;2024-03-23T12:53:52;3.88;;;0.93;;
30420;SDS011;17218;54.070;10.012;2024-03-23T12:56:18;3.22;;;1.00;;
30420;SDS011;17218;54.070;10.012;2024-03-23T12:58:44;2.03;;;0.75;;
30420;SDS011;17218;54.070;10.012;2024-03-23T13:01:13;2.90;;;0.95;;
30420;SDS011;17218;54.070;10.012;2024-03-23T13:03:39;3.53;;;1.10;;
30420;SDS011;17218;54.070;10.012;2024-03-23T13:06:07;5.00;;;1.17;;
30420;SDS011;17218;54.070;10.012;2024-03-23T13:08:33;2.85;;;0.75;;
30420;SDS011;17218;54.070;10.012;2024-03-23T13:11:00;3.45;;;1.00;;
30420;SDS011;17218;54.070;10.012;2024-03-23T13:13:25;2.42;;;1.30;;
30420;SDS011;17218;54.070;10.012;2024-03-23T13:15:52;3.72;;;1.10;;
30420;SDS011;17218;54.070;10.012;2024-03-23T13:18:17;2.47;;;0.98;;
30420;SDS011;17218;54.070;10.012;2024-03-23T13:20:44;3.10;;;1.00;;
30420;SDS011;17218;54.070;10.012;2024-03-23T13:23:11;2.75;;;1.10;;
30420;SDS011;17218;54.070;10.012;2024-03-23T13:25:38;4.13;;;1.38;;
30420;SDS011;17218;54.070;10.012;2024-03-23T13:28:03;5.03;;;1.30;;
30420;SDS011;17218;54.070;10.012;2024-03-23T13:30:30;2.00;;;0.82;;
30420;SDS011;17218;54.070;10.012;2024-03-23T13:32:56;3.55;;;1.02;;
30420;SDS011;17218;54.070;10.012;2024-03-23T13:35:23;2.40;;;1.35;;
30420;SDS011;17218;54.070;10.012;2024-03-23T13:37:48;5.15;;;1.65;;
30420;SDS011;17218;54.070;10.012;2024-03-23T13:40:16;5.40;;;1.27;;
30420;SDS011;17218;54.070;10.012;2024-03-23T13:42:41;2.72;;;1.10;;
30420;SDS011;17218;54.070;10.012;2024-03-23T13:45:08;4.85;;;0.73;;
30420;SDS011;17218;54.070;10.012;2024-03-23T13:47:36;3.35;;;0.80;;
30420;SDS011;17218;54.070;10.012;2024-03-23T13:50:04;2.38;;;0.88;;
30420;SDS011;17218;54.070;10.012;2024-03-23T13:52:30;1.27;;;0.98;;
30420;SDS011;17218;54.070;10.012;2024-03-23T13:54:56;4.15;;;1.17;;
30420;SDS011;17218;54.070;10.012;2024-03-23T13:57:23;2.58;;;0.95;;
30420;SDS011;17218;54.070;10.012;2024-03-23T13:59:51;5.10;;;1.50;;
30420;SDS011;17218;54.070;10.012;2024-03-23T14:02:16;3.28;;;1.23;;
30420;SDS011;17218;54.070;10.012;2024-03-23T14:04:43;3.40;;;1.20;;
30420;SDS011;17218;54.070;10.012;2024-03-23T14:07:08;5.97;;;1.00;;
30420;SDS011;17218;54.070;10.012;2024-03-23T14:09:35;3.25;;;1.20;;
30420;SDS011;17218;54.070;10.012;2024-03-23T14:12:01;3.10;;;0.90;;
30420;SDS011;17218;54.070;10.012;2024-03-23T14:14:29;2.55;;;0.80;;
30420;SDS011;17218;54.070;10.012;2024-03-23T14:16:54;1.20;;;0.70;;
30420;SDS011;17218;54.070;10.012;2024-03-23T14:19:21;4.57;;;1.17;;
30420;SDS011;17218;54.070;10.012;2024-03-23T14:21:46;2.92;;;1.85;;
30420;SDS011;17218;54.070;10.012;2024-03-23T14:24:13;2.35;;;1.00;;
30420;SDS011;17218;54.070;10.012;2024-03-23T14:26:38;5.82;;;1.08;;
30420;SDS011;17218;54.070;10.012;2024-03-23T14:29:06;2.55;;;1.02;;
30420;SDS011;17218;54.070;10.012;2024-03-23T14:31:34;6.60;;;0.90;;
30420;SDS011;17218;54.070;10.012;2024-03-23T14:34:00;4.30;;;1.02;;
30420;SDS011;17218;54.070;10.012;2024-03-23T14:36:26;0.95;;;0.70;;
30420;SDS011;17218;54.070;10.012;2024-03-23T14:38:52;2.97;;;1.25;;
30420;SDS011;17218;54.070;10.012;2024-03-23T14:41:18;1.73;;;0.70;;
30420;SDS011;17218;54.070;10.012;2024-03-23T14:43:44;5.20;;;0.68;;
30420;SDS011;17218;54.070;10.012;2024-03-23T14:46:11;3.63;;;1.13;;
30420;SDS011;17218;54.070;10.012;2024-03-23T14:48:41;3.60;;;1.23;;
30420;SDS011;17218;54.070;10.012;2024-03-23T14:51:08;4.38;;;0.93;;
30420;SDS011;17218;54.070;10.012;2024-03-23T14:53:35;2.47;;;1.15;;
30420;SDS011;17218;54.070;10.012;2024-03-23T14:56:03;3.00;;;1.00;;
30420;SDS011;17218;54.070;10.012;2024-03-23T14:58:30;4.38;;;1.10;;
30420;SDS011;17218;54.070;10.012;2024-03-23T15:00:59;5.85;;;1.52;;
30420;SDS011;17218;54.070;10.012;2024-03-23T15:03:27;4.80;;;1.42;;
30420;SDS011;17218;54.070;10.012;2024-03-23T15:05:54;4.05;;;1.15;;
30420;SDS011;17218;54.070;10.012;2024-03-23T15:08:21;5.88;;;1.17;;
30420;SDS011;17218;54.070;10.012;2024-03-23T15:10:47;6.78;;;1.25;;
30420;SDS011;17218;54.070;10.012;2024-03-23T15:13:14;3.83;;;0.98;;
30420;SDS011;17218;54.070;10.012;2024-03-23T15:15:40;5.47;;;1.00;;
30420;SDS011;17218;54.070;10.012;2024-03-23T15:18:09;2.50;;;1.23;;
30420;SDS011;17218;54.070;10.012;2024-03-23T15:20:34;2.13;;;0.80;;
30420;SDS011;17218;54.070;10.012;2024-03-23T15:23:03;5.05;;;0.93;;
30420;SDS011;17218;54.070;10.012;2024-03-23T15:25:28;3.67;;;0.98;;